Time;durP1;ratioP1;P1;durP2;ratioP2;P2;SDS_P1;SDS_P2;PMS_P1;PMS_P2;Temp;Humidity;BMP_temperature;BMP_pressure;BME280_temperature;BME280_humidity;BME280_pressure;Samples;Min_cycle;Max_cycle;Signal;HPM_P1;HPM_P2
2021/08/31 00:01:36;;;;;;;21.03;15.30;;;15.30;99.90;;;;;;4991877;28;20474;-67
2021/08/31 00:04:03;;;;;;;16.47;14.73;;;15.30;99.90;;;;;;4992406;28;20443;-67
2021/08/31 00:06:30;;;;;;;18.20;16.30;;;15.20;99.90;;;;;;4992354;28;20504;-67
2021/08/31 00:08:56;;;;;;;19.60;16.73;;;15.20;99.90;;;;;;4992403;28;20455;-67
2021/08/31 00:11:23;;;;;;;21.80;18.20;;;15.20;99.90;;;;;;5009378;28;20493;-67
2021/08/31 00:13:51;;;;;;;18.83;16.43;;;15.20;99.90;;;;;;5011868;28;20449;-67
2021/08/31 00:16:18;;;;;;;19.23;17.27;;;15.20;99.90;;;;;;5011918;28;20453;-67
2021/08/31 00:18:45;;;;;;;20.27;16.70;;;15.10;99.90;;;;;;5011982;28;20453;-67
2021/08/31 00:21:12;;;;;;;20.03;18.00;;;15.10;99.90;;;;;;5011319;28;20445;-67
2021/08/31 00:23:39;;;;;;;20.37;16.53;;;15.10;99.90;;;;;;4992063;28;20491;-67
2021/08/31 00:26:06;;;;;;;18.13;16.33;;;15.10;99.90;;;;;;4992402;28;20454;-67
2021/08/31 00:28:33;;;;;;;24.20;18.60;;;15.00;99.90;;;;;;4992046;28;20451;-67
2021/08/31 00:31:01;;;;;;;19.93;17.60;;;15.00;99.90;;;;;;4991901;28;20454;-67
2021/08/31 00:33:27;;;;;;;19.53;17.50;;;15.00;99.90;;;;;;4992725;28;20462;-67
2021/08/31 00:35:54;;;;;;;19.30;17.03;;;15.00;99.90;;;;;;5003342;28;20819;-67
2021/08/31 00:38:21;;;;;;;17.13;15.33;;;14.90;99.90;;;;;;4992051;28;20462;-67
2021/08/31 00:40:48;;;;;;;24.03;19.30;;;14.90;99.90;;;;;;4992052;28;20447;-68
2021/08/31 00:43:17;;;;;;;24.03;20.20;;;14.90;99.90;;;;;;4991697;28;20467;-67
2021/08/31 00:45:43;;;;;;;18.90;16.17;;;14.90;99.90;;;;;;4991975;28;20800;-67
2021/08/31 00:48:11;;;;;;;20.43;16.70;;;14.90;99.90;;;;;;5011424;28;20524;-67
2021/08/31 00:50:39;;;;;;;20.43;18.33;;;14.90;99.90;;;;;;5011512;28;20449;-67
2021/08/31 00:53:06;;;;;;;20.13;16.73;;;14.90;99.90;;;;;;5011177;28;20497;-67
2021/08/31 00:55:33;;;;;;;25.40;21.93;;;14.90;99.90;;;;;;5011441;28;20450;-67
2021/08/31 00:58:00;;;;;;;22.93;19.30;;;14.90;99.90;;;;;;5008938;28;20461;-67
2021/08/31 01:00:26;;;;;;;20.07;17.80;;;14.90;99.90;;;;;;4991887;28;20848;-67
2021/08/31 01:02:54;;;;;;;23.17;20.53;;;14.90;99.90;;;;;;4991490;28;20474;-67
2021/08/31 01:05:23;;;;;;;23.67;17.90;;;14.80;99.90;;;;;;4991789;28;20446;-67
2021/08/31 01:07:50;;;;;;;18.63;15.67;;;14.80;99.90;;;;;;4991768;28;20466;-67
2021/08/31 01:10:16;;;;;;;24.13;17.77;;;14.80;99.90;;;;;;4995018;28;20452;-67
2021/08/31 01:12:44;;;;;;;19.90;17.80;;;14.80;99.90;;;;;;5010995;28;20512;-67
2021/08/31 01:15:12;;;;;;;21.10;17.33;;;14.90;99.90;;;;;;5014300;28;20473;-67
2021/08/31 01:17:39;;;;;;;22.10;18.03;;;14.80;99.90;;;;;;5014977;28;20461;-67
2021/08/31 01:20:06;;;;;;;20.27;18.00;;;14.80;99.90;;;;;;5015100;28;20441;-67
2021/08/31 01:22:34;;;;;;;24.63;22.10;;;14.80;99.90;;;;;;5012878;28;20480;-67
2021/08/31 01:25:04;;;;;;;22.37;18.20;;;14.80;99.90;;;;;;5015124;28;20449;-67
2021/08/31 01:27:31;;;;;;;24.07;20.23;;;14.80;99.90;;;;;;5014982;28;20438;-67
2021/08/31 01:29:59;;;;;;;26.37;22.20;;;14.80;99.90;;;;;;5014890;28;20456;-67
2021/08/31 01:32:27;;;;;;;26.30;23.73;;;14.80;99.90;;;;;;5003173;28;20826;-67
2021/08/31 01:34:53;;;;;;;24.10;19.73;;;14.80;99.90;;;;;;4995161;28;20458;-67
2021/08/31 01:37:20;;;;;;;23.33;19.17;;;14.80;99.90;;;;;;4995362;28;20450;-67
2021/08/31 01:39:47;;;;;;;24.30;20.70;;;14.70;99.90;;;;;;4995130;28;20458;-67
2021/08/31 01:42:15;;;;;;;27.87;20.67;;;14.80;99.90;;;;;;4994833;28;20815;-67
2021/08/31 01:44:42;;;;;;;25.40;22.70;;;14.80;99.90;;;;;;5008608;28;20446;-67
2021/08/31 01:47:12;;;;;;;31.27;24.70;;;14.80;99.90;;;;;;5001849;28;20459;-67
2021/08/31 01:49:38;;;;;;;34.20;21.90;;;14.70;99.90;;;;;;4995057;28;20505;-67
2021/08/31 01:52:05;;;;;;;25.53;20.50;;;14.70;99.90;;;;;;4994494;28;20499;-67
2021/08/31 01:54:32;;;;;;;29.07;23.40;;;14.70;99.90;;;;;;4994870;28;20462;-67
2021/08/31 01:56:59;;;;;;;27.27;23.57;;;14.70;99.90;;;;;;5006799;28;20446;-67
2021/08/31 01:59:27;;;;;;;25.60;20.60;;;14.70;99.90;;;;;;5014235;28;20450;-66
2021/08/31 02:01:54;;;;;;;26.63;20.80;;;14.70;99.90;;;;;;5014259;28;20876;-66
2021/08/31 02:04:20;;;;;;;26.83;22.27;;;14.70;99.90;;;;;;5014459;28;20461;-66
2021/08/31 02:06:47;;;;;;;26.83;22.30;;;14.70;99.90;;;;;;5010785;28;20482;-67
2021/08/31 02:09:14;;;;;;;26.03;23.30;;;14.70;99.90;;;;;;4994625;28;20447;-66
2021/08/31 02:11:40;;;;;;;28.53;21.80;;;14.70;99.90;;;;;;4994311;28;20490;-67
2021/08/31 02:14:07;;;;;;;30.33;25.63;;;14.70;99.90;;;;;;4994467;28;20443;-66
2021/08/31 02:16:38;;;;;;;33.27;25.87;;;14.70;99.90;;;;;;4994363;28;20462;-66
2021/08/31 02:19:05;;;;;;;27.90;22.47;;;14.70;99.90;;;;;;4995573;28;20801;-66
2021/08/31 02:21:31;;;;;;;30.47;22.70;;;14.70;99.90;;;;;;4993803;28;20439;-66
2021/08/31 02:23:58;;;;;;;30.03;25.13;;;14.70;99.90;;;;;;4994374;28;20814;-67
2021/08/31 02:26:29;;;;;;;27.43;23.57;;;14.80;99.90;;;;;;4994234;28;20455;-66
2021/08/31 02:28:55;;;;;;;28.70;25.27;;;14.80;99.90;;;;;;4994389;28;20462;-66
2021/08/31 02:31:22;;;;;;;30.50;22.50;;;14.80;99.90;;;;;;5000548;28;20454;-66
2021/08/31 02:33:50;;;;;;;27.10;23.03;;;14.90;99.90;;;;;;5013536;28;20504;-67
2021/08/31 02:36:17;;;;;;;29.67;24.20;;;14.90;99.90;;;;;;5013702;28;20853;-66
2021/08/31 02:38:44;;;;;;;30.97;26.40;;;14.90;99.90;;;;;;5013709;28;20454;-66
2021/08/31 02:41:10;;;;;;;31.37;24.43;;;14.80;99.90;;;;;;5013477;28;20850;-66
2021/08/31 02:43:37;;;;;;;29.90;25.67;;;14.80;99.90;;;;;;5003429;28;20463;-66
2021/08/31 02:46:04;;;;;;;30.90;24.30;;;14.80;99.90;;;;;;4993858;28;20450;-66
2021/08/31 02:48:31;;;;;;;36.17;27.10;;;14.80;99.90;;;;;;4993877;28;20510;-66
2021/08/31 02:50:59;;;;;;;31.73;27.30;;;14.80;99.90;;;;;;4993618;28;20447;-66
2021/08/31 02:53:25;;;;;;;30.30;25.50;;;14.70;99.90;;;;;;4993530;28;20885;-66
2021/08/31 02:55:52;;;;;;;35.27;26.13;;;14.70;99.90;;;;;;5003446;28;20451;-66
2021/08/31 02:58:19;;;;;;;33.00;29.07;;;14.60;99.90;;;;;;5013258;28;20445;-66
2021/08/31 03:00:53;;;;;;;40.30;28.00;;;14.60;99.90;;;;;;5013292;28;20815;-66
2021/08/31 03:03:20;;;;;;;40.20;27.87;;;14.60;99.90;;;;;;5009796;28;20557;-66
2021/08/31 03:05:47;;;;;;;42.83;31.20;;;14.50;99.90;;;;;;4993593;28;20450;-66
2021/08/31 03:08:15;;;;;;;38.10;29.77;;;14.50;99.90;;;;;;4993476;28;20439;-66
2021/08/31 03:10:41;;;;;;;33.67;26.97;;;14.50;99.90;;;;;;4993411;28;20446;-66
2021/08/31 03:13:08;;;;;;;37.90;28.73;;;14.50;99.90;;;;;;4993303;28;20842;-67
2021/08/31 03:15:35;;;;;;;40.00;31.13;;;14.50;99.90;;;;;;4993341;28;20450;-66
2021/08/31 03:18:01;;;;;;;42.57;31.93;;;14.60;99.90;;;;;;4993306;28;20447;-66
2021/08/31 03:20:28;;;;;;;42.53;34.20;;;14.50;99.90;;;;;;4993511;28;20450;-66
2021/08/31 03:22:55;;;;;;;46.30;31.37;;;14.60;99.90;;;;;;4992893;28;20474;-66
2021/08/31 03:25:23;;;;;;;44.70;33.60;;;14.60;99.90;;;;;;4993991;28;20450;-66
2021/08/31 03:27:50;;;;;;;42.10;32.60;;;14.60;99.90;;;;;;5012734;28;20853;-66
2021/08/31 03:30:19;;;;;;;42.83;32.90;;;14.50;99.90;;;;;;5012653;28;20811;-66
2021/08/31 03:32:45;;;;;;;46.17;31.77;;;14.50;99.90;;;;;;5012348;28;20494;-66
2021/08/31 03:35:12;;;;;;;51.20;33.90;;;14.50;99.90;;;;;;5012549;28;20450;-66
2021/08/31 03:37:39;;;;;;;47.73;33.43;;;14.50;99.90;;;;;;5005975;28;20450;-66
2021/08/31 03:40:06;;;;;;;45.97;34.27;;;14.50;99.90;;;;;;4993065;28;20932;-66
2021/08/31 03:42:34;;;;;;;50.47;34.77;;;14.50;99.90;;;;;;4992565;28;20471;-66
2021/08/31 03:45:01;;;;;;;46.00;35.83;;;14.50;99.90;;;;;;4992850;28;20450;-66
2021/08/31 03:47:28;;;;;;;48.23;35.37;;;14.40;99.90;;;;;;4992752;28;20833;-66
2021/08/31 03:49:54;;;;;;;48.27;36.37;;;14.40;99.90;;;;;;5002800;28;20454;-66
2021/08/31 03:52:21;;;;;;;46.23;34.37;;;14.50;99.90;;;;;;5011917;28;20492;-66
2021/08/31 03:54:48;;;;;;;44.20;33.90;;;14.50;99.90;;;;;;5012267;28;20924;-66
2021/08/31 03:57:14;;;;;;;42.57;30.97;;;14.50;99.90;;;;;;5009909;28;20453;-66
2021/08/31 03:59:43;;;;;;;43.57;32.30;;;14.60;99.90;;;;;;4992687;28;20454;-66
2021/08/31 04:02:10;;;;;;;41.17;33.33;;;14.60;99.90;;;;;;4992125;28;21067;-66
2021/08/31 04:04:37;;;;;;;45.40;34.20;;;14.60;99.90;;;;;;4992385;28;20455;-66
2021/08/31 04:07:04;;;;;;;45.83;34.13;;;14.60;99.90;;;;;;5006305;28;20482;-66
2021/08/31 04:09:30;;;;;;;51.33;38.30;;;14.70;99.90;;;;;;5007470;28;20447;-66
2021/08/31 04:11:57;;;;;;;46.07;34.53;;;14.70;99.90;;;;;;4991876;28;20985;-66
2021/08/31 04:14:24;;;;;;;43.37;35.23;;;14.70;99.90;;;;;;4992257;28;20447;-66
2021/08/31 04:16:52;;;;;;;46.40;35.27;;;14.70;99.90;;;;;;5004119;28;20449;-66
2021/08/31 04:19:18;;;;;;;47.37;33.90;;;14.80;99.90;;;;;;5011758;28;20814;-66
2021/08/31 04:21:45;;;;;;;54.53;37.50;;;14.80;99.90;;;;;;5011464;28;20481;-66
2021/08/31 04:24:12;;;;;;;50.77;40.33;;;14.80;99.90;;;;;;5011828;28;20453;-66
2021/08/31 04:26:38;;;;;;;57.43;39.23;;;14.80;99.90;;;;;;5011426;28;20928;-66
2021/08/31 04:29:05;;;;;;;47.20;36.20;;;14.80;99.90;;;;;;4998718;28;20868;-67
2021/08/31 04:31:32;;;;;;;54.33;40.07;;;14.80;99.90;;;;;;4991805;28;20462;-67
2021/08/31 04:34:00;;;;;;;60.47;42.57;;;14.90;99.90;;;;;;4992150;28;20513;-67
2021/08/31 04:36:26;;;;;;;61.47;41.77;;;14.90;99.90;;;;;;4992260;28;20454;-66
2021/08/31 04:38:53;;;;;;;57.60;40.77;;;14.90;99.90;;;;;;4992169;28;20458;-67
2021/08/31 04:41:20;;;;;;;67.83;44.83;;;14.90;99.90;;;;;;5006729;28;20461;-67
2021/08/31 04:43:47;;;;;;;69.80;44.17;;;14.90;99.90;;;;;;5011621;28;20794;-66
2021/08/31 04:46:13;;;;;;;69.97;46.10;;;14.90;99.90;;;;;;5011687;28;20457;-68
2021/08/31 04:48:40;;;;;;;65.93;44.83;;;14.90;99.90;;;;;;5012525;28;20448;-67
2021/08/31 04:51:08;;;;;;;77.23;46.00;;;14.90;99.90;;;;;;5015642;28;20450;-67
2021/08/31 04:53:35;;;;;;;72.30;44.70;;;14.90;99.90;;;;;;4997993;28;20497;-67
2021/08/31 04:56:02;;;;;;;75.77;51.63;;;14.90;99.90;;;;;;4995973;28;20446;-66
2021/08/31 04:58:29;;;;;;;82.03;47.67;;;14.90;99.90;;;;;;4995920;28;20454;-66
2021/08/31 05:00:55;;;;;;;88.70;50.73;;;14.90;99.90;;;;;;4997012;28;20455;-67
2021/08/31 05:03:22;;;;;;;71.73;45.27;;;14.90;99.90;;;;;;4995912;28;20459;-66
2021/08/31 05:05:49;;;;;;;80.63;48.30;;;14.90;99.90;;;;;;4995958;28;20818;-67
2021/08/31 05:08:17;;;;;;;84.10;50.30;;;14.90;99.90;;;;;;5003328;28;20457;-66
2021/08/31 05:10:44;;;;;;;82.57;46.10;;;14.90;99.90;;;;;;5015323;28;20924;-68
2021/08/31 05:13:11;;;;;;;87.03;50.27;;;14.90;99.90;;;;;;5015139;28;20493;-67
2021/08/31 05:15:38;;;;;;;87.57;47.83;;;15.00;99.90;;;;;;5015353;28;20443;-68
2021/08/31 05:18:05;;;;;;;98.50;52.80;;;15.00;99.90;;;;;;5009800;28;20476;-68
2021/08/31 05:20:32;;;;;;;85.53;48.97;;;15.10;99.90;;;;;;4995499;28;20447;-67
2021/08/31 05:23:01;;;;;;;89.07;51.40;;;15.10;99.90;;;;;;5022196;23;20496;-62
2021/08/31 05:25:29;;;;;;;96.17;53.40;;;15.10;99.90;;;;;;5034902;28;20444;-62
2021/08/31 05:27:57;;;;;;;94.37;52.37;;;15.10;99.90;;;;;;5034855;28;20964;-62
2021/08/31 05:30:24;;;;;;;106.30;57.87;;;15.10;99.90;;;;;;5026795;28;21032;-64
2021/08/31 05:32:50;;;;;;;96.10;49.60;;;15.10;99.90;;;;;;5014570;28;20485;-63
2021/08/31 05:35:17;;;;;;;110.07;60.67;;;15.10;99.90;;;;;;5014995;28;20922;-62
2021/08/31 05:37:44;;;;;;;101.07;55.70;;;15.20;99.90;;;;;;5015022;28;20451;-62
2021/08/31 05:40:11;;;;;;;93.43;50.90;;;15.20;99.90;;;;;;5015000;28;20445;-63
2021/08/31 05:42:40;;;;;;;109.13;55.30;;;15.20;99.90;;;;;;5007884;28;20477;-61
2021/08/31 05:45:08;;;;;;;98.30;51.70;;;15.30;99.90;;;;;;4995135;28;20454;-61
2021/08/31 05:47:35;;;;;;;98.47;57.53;;;15.30;99.90;;;;;;4995311;28;20461;-63
2021/08/31 05:50:02;;;;;;;88.23;52.00;;;15.40;99.90;;;;;;4995202;28;20880;-64
2021/08/31 05:52:28;;;;;;;99.75;56.50;;;15.50;99.90;;;;;;4994759;28;20554;-61
2021/08/31 05:54:58;;;;;;;96.90;53.27;;;15.50;99.90;;;;;;5005187;28;20476;-61
2021/08/31 05:57:25;;;;;;;90.40;54.47;;;15.50;99.90;;;;;;5014134;28;20466;-60
2021/08/31 05:59:53;;;;;;;106.37;54.83;;;15.50;99.90;;;;;;5014078;28;20452;-63
2021/08/31 06:02:20;;;;;;;92.23;52.63;;;15.60;99.90;;;;;;5013925;28;20473;-62
2021/08/31 06:04:47;;;;;;;99.27;57.77;;;15.70;99.90;;;;;;5014376;28;20611;-61
2021/08/31 06:07:14;;;;;;;102.10;53.10;;;15.80;99.90;;;;;;5014408;28;20456;-61
2021/08/31 06:09:41;;;;;;;98.77;55.73;;;15.80;99.90;;;;;;5014328;28;20931;-62
2021/08/31 06:12:10;;;;;;;97.83;57.03;;;15.80;99.90;;;;;;4999188;28;20533;-61
2021/08/31 06:14:38;;;;;;;94.90;52.63;;;15.90;99.90;;;;;;4994270;28;20493;-64
2021/08/31 06:17:07;;;;;;;94.83;54.20;;;16.00;99.90;;;;;;4992972;28;21003;-63
2021/08/31 06:19:34;;;;;;;103.03;53.40;;;16.00;99.90;;;;;;4993177;28;20554;-62
2021/08/31 06:22:02;;;;;;;103.03;56.00;;;16.00;99.90;;;;;;5006487;28;20508;-62
2021/08/31 06:24:29;;;;;;;95.33;53.40;;;16.00;99.90;;;;;;5013493;28;20949;-62
2021/08/31 06:26:56;;;;;;;92.27;53.60;;;16.00;99.90;;;;;;5012975;28;20462;-62
2021/08/31 06:29:23;;;;;;;90.20;54.63;;;15.90;99.90;;;;;;5013355;28;20446;-60
2021/08/31 06:31:51;;;;;;;101.93;57.70;;;15.90;99.90;;;;;;5012434;28;20453;-61
2021/08/31 06:34:19;;;;;;;102.70;60.70;;;15.80;99.90;;;;;;4995372;28;20479;-61
2021/08/31 06:36:47;;;;;;;95.03;58.17;;;15.80;99.90;;;;;;4994201;28;20948;-62
2021/08/31 06:39:14;;;;;;;94.33;52.33;;;15.70;99.90;;;;;;4994230;28;20995;-62
2021/08/31 06:41:41;;;;;;;91.13;55.97;;;15.70;99.90;;;;;;4993853;28;20454;-61
2021/08/31 06:44:09;;;;;;;95.43;61.57;;;15.80;99.90;;;;;;4993864;28;20474;-62
2021/08/31 06:46:36;;;;;;;82.07;49.87;;;15.80;99.90;;;;;;5013778;28;20672;-61
2021/08/31 06:49:03;;;;;;;91.40;56.13;;;15.80;99.90;;;;;;5013643;28;20935;-61
2021/08/31 06:51:32;;;;;;;96.73;58.70;;;15.70;99.90;;;;;;5013360;28;20472;-60
2021/08/31 06:53:59;;;;;;;99.80;57.40;;;15.80;99.90;;;;;;5000893;28;20509;-62
2021/08/31 06:56:26;;;;;;;92.17;58.27;;;15.90;99.90;;;;;;4993736;28;20459;-61
2021/08/31 06:58:53;;;;;;;82.23;55.93;;;15.90;99.90;;;;;;4993868;28;20979;-61
2021/08/31 07:01:21;;;;;;;90.10;56.90;;;16.00;99.90;;;;;;4993649;28;20442;-62
2021/08/31 07:03:48;;;;;;;96.37;57.80;;;16.00;99.90;;;;;;5003952;28;20462;-62
2021/08/31 07:06:15;;;;;;;86.43;55.70;;;16.20;99.90;;;;;;5013297;28;20442;-61
2021/08/31 07:08:43;;;;;;;89.17;57.70;;;16.30;99.90;;;;;;5013200;28;20438;-60
2021/08/31 07:11:10;;;;;;;90.97;54.23;;;16.30;99.90;;;;;;5009551;28;20538;-61
2021/08/31 07:13:37;;;;;;;79.10;55.20;;;16.20;99.90;;;;;;4993229;28;20502;-61
2021/08/31 07:16:05;;;;;;;79.47;51.73;;;16.20;99.90;;;;;;4993452;28;21009;-60
2021/08/31 07:18:32;;;;;;;85.23;48.63;;;16.10;99.90;;;;;;4993459;28;20447;-61
2021/08/31 07:20:59;;;;;;;75.13;51.93;;;16.10;99.90;;;;;;4993736;28;20513;-59
2021/08/31 07:23:27;;;;;;;78.77;54.17;;;16.10;99.90;;;;;;5012591;28;20486;-61
2021/08/31 07:25:55;;;;;;;79.27;52.97;;;16.00;99.90;;;;;;5012786;28;20448;-61
2021/08/31 07:28:22;;;;;;;79.87;49.83;;;16.00;99.90;;;;;;5012873;28;20822;-62
2021/08/31 07:30:49;;;;;;;82.80;53.90;;;16.10;99.90;;;;;;5012804;28;20450;-60
2021/08/31 07:33:17;;;;;;;83.17;57.50;;;16.20;99.90;;;;;;5006860;28;20466;-62
2021/08/31 07:35:44;;;;;;;81.53;52.57;;;16.30;99.90;;;;;;4993258;28;20469;-62
2021/08/31 07:38:12;;;;;;;80.67;54.10;;;16.30;99.90;;;;;;4992896;28;20616;-61
2021/08/31 07:40:39;;;;;;;79.37;55.43;;;16.30;99.90;;;;;;4993262;28;20808;-62
2021/08/31 07:43:07;;;;;;;74.53;54.20;;;16.20;99.90;;;;;;5009487;28;20474;-60
2021/08/31 07:45:34;;;;;;;76.20;54.80;;;16.30;99.90;;;;;;5012660;28;20453;-60
2021/08/31 07:48:01;;;;;;;72.57;51.53;;;16.30;99.90;;;;;;5012443;28;20454;-63
2021/08/31 07:50:27;;;;;;;75.40;53.20;;;16.30;99.90;;;;;;5012201;28;20450;-60
2021/08/31 07:52:54;;;;;;;76.60;54.00;;;16.20;99.90;;;;;;4997033;28;20984;-62
2021/08/31 07:55:22;;;;;;;73.07;55.70;;;16.20;99.90;;;;;;4983480;28;20563;-63
2021/08/31 07:57:49;;;;;;;73.57;54.37;;;16.40;99.90;;;;;;4981540;28;21217;-62
2021/08/31 08:00:18;;;;;;;86.17;57.03;;;16.30;99.90;;;;;;4981221;28;20481;-62
2021/08/31 08:02:46;;;;;;;76.87;57.20;;;16.30;99.90;;;;;;4981011;28;20481;-64
2021/08/31 08:05:13;;;;;;;73.80;53.70;;;16.20;99.90;;;;;;4999441;28;20453;-64
2021/08/31 08:07:41;;;;;;;67.33;49.17;;;16.30;99.90;;;;;;5000762;28;20449;-63
2021/08/31 08:10:10;;;;;;;69.60;49.47;;;16.20;99.90;;;;;;5000375;28;20570;-63
2021/08/31 08:12:37;;;;;;;75.47;53.23;;;16.10;99.90;;;;;;4990157;28;20476;-62
2021/08/31 08:15:05;;;;;;;68.50;50.50;;;16.30;99.90;;;;;;4980900;28;21086;-63
2021/08/31 08:17:33;;;;;;;72.23;50.37;;;16.30;99.90;;;;;;4980883;28;20457;-63
2021/08/31 08:20:01;;;;;;;70.67;53.87;;;16.30;99.90;;;;;;4980889;28;21170;-62
2021/08/31 08:22:29;;;;;;;70.33;53.13;;;16.20;99.90;;;;;;4988267;28;21155;-63
2021/08/31 08:24:57;;;;;;;67.93;49.67;;;16.20;99.90;;;;;;4995296;28;20447;-63
2021/08/31 08:27:28;;;;;;;65.00;48.77;;;16.30;99.90;;;;;;4992182;28;20450;-63
2021/08/31 08:29:59;;;;;;;59.50;43.27;;;16.40;99.90;;;;;;4980907;28;20454;-62
2021/08/31 08:32:26;;;;;;;62.90;47.43;;;16.60;99.90;;;;;;4980871;28;20470;-62
2021/08/31 08:34:55;;;;;;;64.33;49.70;;;16.60;99.90;;;;;;4980893;28;20633;-62
2021/08/31 08:37:22;;;;;;;56.87;44.63;;;16.70;99.90;;;;;;4980821;28;20558;-62
2021/08/31 08:39:49;;;;;;;59.63;45.90;;;16.90;99.90;;;;;;4980641;28;20450;-63
2021/08/31 08:42:16;;;;;;;55.63;44.30;;;17.00;99.90;;;;;;4980467;28;20475;-63
2021/08/31 08:44:44;;;;;;;56.73;43.30;;;16.90;99.90;;;;;;4980990;28;20450;-63
2021/08/31 08:47:20;;;;;;;51.13;42.13;;;16.80;99.90;;;;;;4980779;28;20538;-62
2021/08/31 08:49:54;;;;;;;47.30;39.30;;;16.90;99.90;;;;;;4980625;28;20453;-63
2021/08/31 08:52:23;;;;;;;50.83;42.17;;;17.00;99.90;;;;;;4980295;28;20477;-63
2021/08/31 08:54:55;;;;;;;47.40;37.67;;;17.10;99.90;;;;;;4980447;28;20498;-63
2021/08/31 08:57:28;;;;;;;46.13;39.90;;;17.00;99.90;;;;;;4980440;28;20454;-63
2021/08/31 08:59:55;;;;;;;47.63;39.80;;;16.90;99.90;;;;;;4980564;28;20451;-64
2021/08/31 09:02:37;;;;;;;42.57;33.33;;;16.90;99.90;;;;;;4979951;28;21085;-63
2021/08/31 09:05:06;;;;;;;37.57;31.20;;;16.90;99.90;;;;;;4980388;28;20458;-63
2021/08/31 09:07:37;;;;;;;37.90;30.07;;;16.90;99.90;;;;;;4980094;28;20447;-63
2021/08/31 09:10:20;;;;;;;37.47;29.13;;;16.90;99.90;;;;;;4979969;28;20454;-63
2021/08/31 09:12:49;;;;;;;34.63;30.57;;;16.90;99.90;;;;;;4980255;28;20580;-61
2021/08/31 09:15:30;;;;;;;33.63;28.50;;;16.90;99.90;;;;;;4979849;28;20595;-62
2021/08/31 09:18:19;;;;;;;34.73;30.60;;;16.90;99.90;;;;;;4980366;28;20457;-63
2021/08/31 09:21:04;;;;;;;32.87;29.40;;;17.00;99.90;;;;;;4978884;28;20542;-63
2021/08/31 09:23:35;;;;;;;37.17;31.03;;;17.10;99.90;;;;;;4980073;28;20474;-63
2021/08/31 09:26:06;;;;;;;32.47;29.17;;;17.30;99.90;;;;;;4980325;28;20450;-62
2021/08/31 09:28:36;;;;;;;32.93;27.87;;;17.80;99.90;;;;;;4980228;28;20454;-63
2021/08/31 09:31:06;;;;;;;35.10;31.30;;;18.20;99.90;;;;;;4980020;28;20454;-63
2021/08/31 09:33:36;;;;;;;31.97;28.63;;;18.40;99.90;;;;;;4980095;28;20521;-63
2021/08/31 09:36:13;;;;;;;32.70;29.20;;;18.70;99.90;;;;;;4982800;28;20482;-62
2021/08/31 09:38:53;;;;;;;32.03;29.03;;;18.70;99.90;;;;;;4983446;28;20453;-61
2021/08/31 09:41:31;;;;;;;31.53;28.23;;;19.20;99.90;;;;;;4983453;28;20487;-63
2021/08/31 09:44:06;;;;;;;31.53;26.87;;;19.40;99.90;;;;;;4983455;28;20471;-61
2021/08/31 09:46:57;;;;;;;29.93;27.23;;;19.50;99.90;;;;;;4983881;28;20457;-62
2021/08/31 09:49:27;;;;;;;31.00;28.00;;;19.90;99.90;;;;;;4983017;28;20451;-62
2021/08/31 09:52:10;;;;;;;30.30;27.80;;;20.10;99.90;;;;;;4982948;28;20457;-63
2021/08/31 09:54:43;;;;;;;28.43;26.23;;;20.40;99.90;;;;;;4983493;28;20560;-62
2021/08/31 09:57:30;;;;;;;27.20;24.80;;;20.20;99.90;;;;;;4983714;28;20953;-63
2021/08/31 09:59:58;;;;;;;29.63;27.33;;;20.20;99.90;;;;;;4983256;28;20451;-61
2021/08/31 10:02:26;;;;;;;27.40;25.20;;;20.00;99.90;;;;;;4983082;28;20482;-63
2021/08/31 10:04:53;;;;;;;28.10;25.97;;;20.20;99.90;;;;;;4983418;28;20442;-63
2021/08/31 10:07:22;;;;;;;27.93;25.50;;;20.60;99.90;;;;;;4983273;28;20451;-63
2021/08/31 10:09:51;;;;;;;26.27;24.13;;;20.80;99.90;;;;;;4983312;28;20556;-63
2021/08/31 10:12:21;;;;;;;27.53;24.97;;;21.40;99.90;;;;;;4983032;28;21086;-63
2021/08/31 10:14:53;;;;;;;28.70;26.40;;;20.90;99.90;;;;;;4982641;28;20848;-63
2021/08/31 10:17:23;;;;;;;27.73;25.37;;;20.30;99.90;;;;;;4982797;28;21109;-62
2021/08/31 10:19:52;;;;;;;26.37;24.37;;;20.30;99.90;;;;;;4982998;28;20876;-63
2021/08/31 10:22:20;;;;;;;25.97;24.07;;;20.00;99.90;;;;;;4982663;28;20482;-63
2021/08/31 10:24:55;;;;;;;27.93;25.43;;;19.90;99.90;;;;;;4983048;28;20453;-63
2021/08/31 10:27:36;;;;;;;27.33;25.17;;;20.00;99.90;;;;;;4982794;28;20465;-62
2021/08/31 10:30:38;;;;;;;25.20;23.07;;;20.10;99.90;;;;;;4982891;28;20454;-63
2021/08/31 10:33:41;;;;;;;29.17;27.10;;;20.30;99.90;;;;;;4982496;28;20467;-62
2021/08/31 10:36:11;;;;;;;28.27;26.20;;;21.10;99.90;;;;;;4982850;28;21178;-63
2021/08/31 10:38:47;;;;;;;27.80;25.90;;;21.50;99.90;;;;;;4982574;28;20457;-62
2021/08/31 10:41:48;;;;;;;27.27;25.27;;;21.90;99.90;;;;;;4982586;28;20451;-63
2021/08/31 10:44:40;;;;;;;30.20;28.00;;;21.80;99.90;;;;;;4982670;28;20446;-64
2021/08/31 10:47:15;;;;;;;29.43;27.50;;;22.20;99.90;;;;;;4982697;28;20459;-63
2021/08/31 10:50:20;;;;;;;29.20;27.00;;;23.10;99.90;;;;;;4982583;28;20442;-63
2021/08/31 10:52:50;;;;;;;30.67;28.47;;;22.80;99.90;;;;;;4982179;28;20498;-64
2021/08/31 10:55:41;;;;;;;29.80;27.70;;;22.40;99.90;;;;;;4982235;28;20485;-63
2021/08/31 10:58:14;;;;;;;28.63;26.63;;;22.10;99.90;;;;;;4982392;28;20958;-63
2021/08/31 11:00:55;;;;;;;29.10;27.40;;;21.90;99.90;;;;;;4982358;28;20450;-63
2021/08/31 11:03:39;;;;;;;29.43;27.53;;;21.60;99.90;;;;;;4982305;28;20884;-63
2021/08/31 11:06:27;;;;;;;28.17;26.43;;;21.50;99.90;;;;;;4982325;28;20908;-62
2021/08/31 11:09:25;;;;;;;29.43;27.63;;;22.00;99.90;;;;;;4982344;28;20501;-63
2021/08/31 11:12:14;;;;;;;28.00;26.30;;;22.10;99.90;;;;;;4969820;28;20463;-63
2021/08/31 11:14:45;;;;;;;28.50;26.97;;;22.60;99.90;;;;;;4983474;28;20487;-63
2021/08/31 11:17:35;;;;;;;29.20;27.60;;;22.90;99.90;;;;;;4993789;28;20620;-63
2021/08/31 11:20:32;;;;;;;30.33;28.63;;;23.00;99.90;;;;;;4962655;28;20451;-62
2021/08/31 11:23:07;;;;;;;29.20;27.67;;;23.30;99.90;;;;;;4979334;23;20500;-64
2021/08/31 11:25:37;;;;;;;28.43;27.00;;;24.40;99.90;;;;;;5013273;28;20535;-65
2021/08/31 11:28:06;;;;;;;28.13;26.73;;;24.20;99.60;;;;;;5008733;28;20451;-65
2021/08/31 11:30:49;;;;;;;28.27;26.77;;;24.30;98.70;;;;;;4982149;28;20451;-65
2021/08/31 11:33:18;;;;;;;31.20;29.40;;;24.70;98.00;;;;;;4981712;28;20477;-65
2021/08/31 11:35:46;;;;;;;28.93;27.40;;;26.90;93.50;;;;;;4981722;28;20856;-66
2021/08/31 11:38:13;;;;;;;30.93;29.33;;;27.70;85.50;;;;;;4981827;28;20454;-65
2021/08/31 11:40:39;;;;;;;30.93;29.20;;;26.80;78.50;;;;;;4981703;28;21202;-64
2021/08/31 11:43:06;;;;;;;31.93;30.03;;;26.90;81.10;;;;;;4996601;28;21042;-64
2021/08/31 11:45:37;;;;;;;30.43;28.87;;;27.10;73.80;;;;;;5001129;28;20942;-64
2021/08/31 11:48:08;;;;;;;30.20;28.70;;;28.50;68.20;;;;;;5001028;28;20450;-65
2021/08/31 11:50:36;;;;;;;29.00;27.60;;;29.30;60.00;;;;;;5001293;28;20476;-64
2021/08/31 11:53:19;;;;;;;30.23;28.93;;;30.40;54.10;;;;;;5000712;28;20477;-65
2021/08/31 11:55:56;;;;;;;29.60;28.20;;;32.40;47.80;;;;;;5000642;28;21027;-66
2021/08/31 11:58:23;;;;;;;31.10;29.40;;;33.40;45.30;;;;;;5000491;28;20459;-66
2021/08/31 12:00:51;;;;;;;31.47;29.77;;;34.50;44.10;;;;;;5000824;28;20508;-63
2021/08/31 12:03:24;;;;;;;31.10;29.60;;;33.50;44.00;;;;;;5000512;28;20966;-65
2021/08/31 12:05:56;;;;;;;31.70;29.97;;;30.20;45.80;;;;;;5000786;28;20486;-65
2021/08/31 12:08:26;;;;;;;30.57;29.23;;;28.30;50.20;;;;;;5000875;28;20552;-64
2021/08/31 12:10:55;;;;;;;30.00;28.40;;;27.70;53.80;;;;;;5000938;28;20457;-64
2021/08/31 12:13:23;;;;;;;28.20;26.50;;;26.30;53.70;;;;;;5000317;28;20465;-65
2021/08/31 12:15:54;;;;;;;32.23;30.40;;;30.20;53.10;;;;;;5000648;28;20496;-65
2021/08/31 12:18:24;;;;;;;31.10;29.37;;;33.30;46.00;;;;;;5000606;28;20953;-63
2021/08/31 12:20:52;;;;;;;29.53;28.00;;;30.50;44.70;;;;;;5000702;28;21220;-62
2021/08/31 12:23:29;;;;;;;29.67;28.07;;;28.60;47.00;;;;;;5000083;28;20578;-62
2021/08/31 12:25:56;;;;;;;30.60;28.90;;;27.60;50.00;;;;;;5000014;28;20460;-65
2021/08/31 12:28:24;;;;;;;31.50;29.80;;;26.70;53.30;;;;;;5000361;28;20449;-65
2021/08/31 12:30:52;;;;;;;30.37;28.70;;;25.80;55.80;;;;;;5000393;28;21137;-66
2021/08/31 12:33:25;;;;;;;29.43;27.77;;;25.30;57.70;;;;;;5000229;28;20564;-65
2021/08/31 12:36:02;;;;;;;29.20;27.80;;;26.60;58.40;;;;;;5000280;28;20843;-65
2021/08/31 12:38:33;;;;;;;29.00;27.60;;;30.30;52.10;;;;;;5000400;28;20540;-64